Time;durP1;ratioP1;P1;durP2;ratioP2;P2;SDS_P1;SDS_P2;PMS_P1;PMS_P2;Temp;Humidity;BMP_temperature;BMP_pressure;BME280_temperature;BME280_humidity;BME280_pressure;Samples;Min_cycle;Max_cycle;Signal;HPM_P1;HPM_P2
2023/07/26 00:01:25;;;;;;;5.20;3.10;;;;;;;12.43;100.00;97870.94;4168871;28;20044;-71
2023/07/26 00:03:25;;;;;;;9.65;3.40;;;;;;;12.38;100.00;97878.47;4170133;28;20473;-71
2023/07/26 00:05:25;;;;;;;6.72;3.30;;;;;;;12.34;100.00;97880.50;4172145;28;20049;-71
2023/07/26 00:07:26;;;;;;;9.95;4.35;;;;;;;12.30;100.00;97890.78;4172094;28;20116;-71
2023/07/26 00:09:26;;;;;;;11.38;3.63;;;;;;;12.22;100.00;97886.47;4171885;28;20068;-71
2023/07/26 00:11:26;;;;;;;6.90;3.30;;;;;;;12.17;100.00;97886.91;4171527;28;20136;-71
2023/07/26 00:13:27;;;;;;;7.55;3.22;;;;;;;12.12;100.00;97884.56;4170545;28;20141;-71
2023/07/26 00:15:27;;;;;;;10.13;3.22;;;;;;;12.09;100.00;97890.91;4169579;28;20049;-71
2023/07/26 00:17:27;;;;;;;10.75;2.90;;;;;;;12.03;100.00;97884.97;4171726;28;20048;-71
2023/07/26 00:19:28;;;;;;;8.25;3.58;;;;;;;12.03;100.00;97889.75;4172653;28;20041;-71
2023/07/26 00:21:28;;;;;;;8.32;3.13;;;;;;;12.00;100.00;97894.13;4171752;28;20098;-71
2023/07/26 00:23:30;;;;;;;6.03;3.10;;;;;;;12.03;100.00;97898.06;4174244;28;20400;-71
2023/07/26 00:25:30;;;;;;;5.95;3.17;;;;;;;11.99;100.00;97894.50;4173672;28;20492;-71
2023/07/26 00:27:31;;;;;;;7.47;3.80;;;;;;;11.94;100.00;97901.25;4174348;28;20065;-71
2023/07/26 00:29:31;;;;;;;7.38;3.45;;;;;;;11.93;100.00;97896.91;4174893;28;20029;-71
2023/07/26 00:31:31;;;;;;;15.75;3.60;;;;;;;11.86;100.00;97905.25;4174611;28;20063;-71
2023/07/26 00:33:32;;;;;;;8.93;3.50;;;;;;;11.90;100.00;97906.00;4174435;28;20367;-71
2023/07/26 00:35:38;;;;;;;15.80;3.80;;;;;;;11.83;100.00;97897.69;4173782;28;20135;-71
2023/07/26 00:37:38;;;;;;;10.73;3.60;;;;;;;11.79;100.00;97905.22;4172938;28;20361;-71
2023/07/26 00:39:39;;;;;;;11.55;3.60;;;;;;;11.80;100.00;97904.84;4174497;28;20037;-71
2023/07/26 00:41:39;;;;;;;7.40;3.75;;;;;;;11.79;100.00;97906.00;4173615;28;20111;-71
2023/07/26 00:43:39;;;;;;;8.65;3.45;;;;;;;11.76;100.00;97909.59;4173759;28;20106;-71
2023/07/26 00:45:42;;;;;;;14.05;4.07;;;;;;;11.76;100.00;97914.34;4174335;28;20041;-71
2023/07/26 00:47:44;;;;;;;6.05;3.08;;;;;;;11.74;100.00;97911.16;4172901;28;20190;-71
2023/07/26 00:49:44;;;;;;;9.57;3.03;;;;;;;11.72;100.00;97917.09;4174273;28;20112;-71
2023/07/26 00:51:44;;;;;;;10.90;3.13;;;;;;;11.73;100.00;97915.91;4174304;28;20477;-71
2023/07/26 00:53:45;;;;;;;4.25;2.33;;;;;;;11.71;100.00;97923.84;4173771;28;20033;-71
2023/07/26 00:55:46;;;;;;;7.68;2.80;;;;;;;11.73;100.00;97923.44;4175208;28;20044;-71
2023/07/26 00:57:46;;;;;;;5.95;2.40;;;;;;;11.74;100.00;97927.78;4174254;28;20370;-71
2023/07/26 00:59:47;;;;;;;7.20;3.28;;;;;;;11.76;100.00;97930.97;4172070;28;20084;-71
2023/07/26 01:01:47;;;;;;;12.25;3.15;;;;;;;11.81;100.00;97930.56;4174345;28;20202;-71
2023/07/26 01:03:47;;;;;;;8.68;2.97;;;;;;;11.83;100.00;97936.50;4172096;28;20072;-71
2023/07/26 01:06:05;;;;;;;13.02;2.75;;;;;;;11.80;100.00;97937.31;4174214;28;20045;-71
2023/07/26 01:08:17;;;;;;;5.65;3.15;;;;;;;11.86;100.00;97937.72;4173442;28;20120;-71
2023/07/26 01:10:46;;;;;;;7.17;3.17;;;;;;;11.83;100.00;97939.28;4171091;28;20021;-71
2023/07/26 01:12:54;;;;;;;7.65;3.05;;;;;;;11.81;100.00;97938.91;4173336;28;20854;-71
2023/07/26 01:15:00;;;;;;;7.55;2.75;;;;;;;11.84;100.00;97943.66;4173982;28;20048;-71
2023/07/26 01:17:01;;;;;;;11.00;3.17;;;;;;;11.79;100.00;97941.25;4174306;28;20124;-71
2023/07/26 01:19:02;;;;;;;9.68;3.53;;;;;;;11.84;100.00;97951.19;4174558;28;20249;-70
2023/07/26 01:21:02;;;;;;;6.57;2.65;;;;;;;11.81;100.00;97952.75;4172397;28;20262;-71
2023/07/26 01:23:03;;;;;;;6.00;2.78;;;;;;;11.77;100.00;97955.50;4171739;28;20087;-71
2023/07/26 01:25:03;;;;;;;8.02;2.95;;;;;;;11.78;100.00;97953.53;4174027;28;20041;-71
2023/07/26 01:27:04;;;;;;;5.78;2.80;;;;;;;11.72;100.00;97946.81;4173999;28;20048;-71
2023/07/26 01:29:05;;;;;;;12.35;4.18;;;;;;;11.70;100.00;97951.97;4173388;28;20041;-71
2023/07/26 01:31:07;;;;;;;6.25;2.97;;;;;;;11.66;100.00;97945.63;4173766;28;20060;-71
2023/07/26 01:33:09;;;;;;;6.43;3.03;;;;;;;11.67;100.00;97950.78;4172543;28;20083;-71
2023/07/26 01:35:11;;;;;;;9.20;3.17;;;;;;;11.60;100.00;97950.78;4173012;28;20385;-71
2023/07/26 01:37:12;;;;;;;5.65;2.60;;;;;;;11.60;100.00;97956.34;4172571;28;21498;-71
2023/07/26 01:39:12;;;;;;;5.32;2.70;;;;;;;11.68;100.00;97951.56;4174004;28;20400;-71
2023/07/26 01:41:14;;;;;;;5.38;2.55;;;;;;;11.66;100.00;97962.25;4174162;28;20049;-71
2023/07/26 01:43:14;;;;;;;7.78;2.65;;;;;;;11.66;100.00;97954.72;4173098;28;20048;-71
2023/07/26 01:45:15;;;;;;;6.93;2.72;;;;;;;11.71;100.00;97968.19;4175294;28;20504;-71
2023/07/26 01:47:17;;;;;;;6.60;2.92;;;;;;;11.75;100.00;97957.91;4172539;28;20531;-71
2023/07/26 01:49:18;;;;;;;5.07;2.60;;;;;;;11.77;100.00;97966.59;4174008;28;20037;-71
2023/07/26 01:51:18;;;;;;;8.02;3.15;;;;;;;11.76;100.00;97970.56;4173555;28;20060;-71
2023/07/26 01:53:18;;;;;;;3.08;2.05;;;;;;;11.78;100.00;97973.72;4173401;28;20473;-71
2023/07/26 01:55:19;;;;;;;6.07;2.30;;;;;;;11.77;100.00;97974.13;4174339;28;20053;-71
2023/07/26 01:57:22;;;;;;;6.43;2.35;;;;;;;11.71;100.00;97975.72;4173283;28;20045;-71
2023/07/26 01:59:22;;;;;;;5.78;2.25;;;;;;;11.68;100.00;97974.53;4170738;28;20142;-71
2023/07/26 02:01:22;;;;;;;6.63;2.30;;;;;;;11.72;100.00;97966.19;4172140;28;20431;-71
2023/07/26 02:03:23;;;;;;;8.93;2.65;;;;;;;11.70;100.00;97972.16;4171505;28;20040;-71
2023/07/26 02:05:24;;;;;;;7.57;2.22;;;;;;;11.72;100.00;97977.28;4171907;28;20049;-70
2023/07/26 02:07:24;;;;;;;4.68;2.33;;;;;;;11.78;100.00;97970.16;4172272;28;20076;-71
2023/07/26 02:09:24;;;;;;;7.05;2.67;;;;;;;11.69;100.00;97965.03;4170884;28;20562;-71
2023/07/26 02:11:25;;;;;;;4.95;2.50;;;;;;;11.67;100.00;97974.94;4170003;28;20067;-71
2023/07/26 02:13:25;;;;;;;8.98;2.85;;;;;;;11.66;100.00;97981.63;4172058;28;20064;-71
2023/07/26 02:15:25;;;;;;;4.05;2.55;;;;;;;11.65;100.00;97982.84;4174037;28;20135;-71
2023/07/26 02:17:26;;;;;;;5.90;2.72;;;;;;;11.64;100.00;97981.25;4172780;28;20405;-71
2023/07/26 02:19:26;;;;;;;5.05;2.58;;;;;;;11.57;100.00;97978.47;4173608;28;20044;-71
2023/07/26 02:21:26;;;;;;;8.95;2.33;;;;;;;11.53;100.00;97984.03;4173501;28;20140;-71
2023/07/26 02:23:26;;;;;;;8.50;2.83;;;;;;;11.51;100.00;98000.28;4171900;28;20041;-71
2023/07/26 02:25:27;;;;;;;4.53;2.40;;;;;;;11.44;100.00;97991.97;4173573;28;20149;-71
2023/07/26 02:27:27;;;;;;;11.10;2.47;;;;;;;11.41;100.00;97999.06;4172760;28;20041;-71
2023/07/26 02:29:28;;;;;;;7.13;2.65;;;;;;;11.40;100.00;98002.22;4174136;28;20063;-71
2023/07/26 02:31:28;;;;;;;8.50;2.67;;;;;;;11.34;100.00;97998.28;4171462;28;20045;-71
2023/07/26 02:33:28;;;;;;;5.78;2.75;;;;;;;11.33;100.00;98003.00;4172165;28;20033;-71
2023/07/26 02:35:29;;;;;;;8.75;2.80;;;;;;;11.28;100.00;98003.41;4173566;28;20076;-71
2023/07/26 02:37:29;;;;;;;7.60;2.88;;;;;;;11.24;100.00;98011.69;4173045;28;20503;-71
2023/07/26 02:39:29;;;;;;;13.50;3.85;;;;;;;11.23;100.00;98007.34;4168995;28;20048;-71
2023/07/26 02:41:30;;;;;;;5.60;3.97;;;;;;;11.19;100.00;98003.81;4172395;28;20037;-71
2023/07/26 02:43:30;;;;;;;5.57;2.88;;;;;;;11.12;100.00;98014.06;4169217;28;20541;-71
2023/07/26 02:45:30;;;;;;;7.43;2.90;;;;;;;11.07;100.00;98011.69;4170365;28;20060;-71
2023/07/26 02:47:32;;;;;;;9.70;2.83;;;;;;;11.06;100.00;98021.16;4172725;28;20044;-71
2023/07/26 02:49:32;;;;;;;8.23;2.73;;;;;;;11.02;100.00;98031.47;4172792;28;20037;-71
2023/07/26 02:51:33;;;;;;;12.27;2.88;;;;;;;10.96;100.00;98023.53;4170138;28;20040;-71
2023/07/26 02:53:33;;;;;;;6.13;2.90;;;;;;;10.99;100.00;98019.16;4170986;28;20044;-71
2023/07/26 02:55:33;;;;;;;5.03;2.88;;;;;;;10.95;100.00;98021.16;4171454;28;20037;-71
2023/07/26 02:57:33;;;;;;;5.80;2.35;;;;;;;10.95;100.00;98019.19;4172680;28;20112;-71
2023/07/26 02:59:34;;;;;;;7.65;2.85;;;;;;;10.94;100.00;98027.88;4172630;28;20033;-71
2023/07/26 03:01:34;;;;;;;4.53;2.55;;;;;;;10.94;100.00;98030.66;4172703;28;20477;-71
2023/07/26 03:03:34;;;;;;;6.63;2.80;;;;;;;10.95;100.00;98018.38;4171553;28;20041;-71
2023/07/26 03:05:38;;;;;;;7.88;3.38;;;;;;;10.95;100.00;98013.63;4172802;28;20043;-70
2023/07/26 03:07:38;;;;;;;9.10;2.47;;;;;;;10.94;100.00;98025.09;4171951;28;20064;-71
2023/07/26 03:09:38;;;;;;;2.75;2.35;;;;;;;10.92;100.00;98022.75;4172700;28;20041;-71
2023/07/26 03:11:38;;;;;;;7.63;2.42;;;;;;;10.89;100.00;98025.47;4171708;28;20036;-71
2023/07/26 03:13:39;;;;;;;4.82;2.45;;;;;;;10.84;100.00;98032.19;4172111;28;20090;-71
2023/07/26 03:15:39;;;;;;;9.70;2.95;;;;;;;10.81;100.00;98030.19;4172901;28;20251;-71
2023/07/26 03:17:39;;;;;;;8.77;2.55;;;;;;;10.79;100.00;98034.53;4171782;28;20660;-71
2023/07/26 03:19:40;;;;;;;6.82;2.53;;;;;;;10.74;100.00;98034.91;4172130;28;20029;-71
2023/07/26 03:21:40;;;;;;;6.07;2.60;;;;;;;10.69;100.00;98036.88;4171937;28;20131;-71
2023/07/26 03:23:40;;;;;;;5.90;2.30;;;;;;;10.68;100.00;98046.38;4171914;28;20041;-71
2023/07/26 03:25:42;;;;;;;4.30;2.20;;;;;;;10.64;100.00;98042.78;4172190;28;20513;-71
2023/07/26 03:27:42;;;;;;;7.30;2.63;;;;;;;10.65;100.00;98040.81;4172452;28;20053;-71
2023/07/26 03:29:43;;;;;;;5.10;2.00;;;;;;;10.63;100.00;98034.88;4173016;28;20364;-71
2023/07/26 03:31:43;;;;;;;9.98;2.90;;;;;;;10.61;100.00;98043.56;4170983;28;20057;-71
2023/07/26 03:33:43;;;;;;;8.93;2.88;;;;;;;10.59;100.00;98045.94;4171755;28;20551;-71
2023/07/26 03:35:44;;;;;;;12.05;2.92;;;;;;;10.58;100.00;98038.78;4171655;28;20372;-71
2023/07/26 03:37:44;;;;;;;7.00;2.15;;;;;;;10.56;100.00;98034.84;4171701;28;20044;-71
2023/07/26 03:39:44;;;;;;;5.50;2.30;;;;;;;10.52;100.00;98045.91;4171860;28;20036;-71
2023/07/26 03:41:45;;;;;;;7.93;2.50;;;;;;;10.49;100.00;98035.59;4172008;28;20041;-71
2023/07/26 03:43:45;;;;;;;6.65;2.10;;;;;;;10.49;100.00;98043.09;4169545;28;20490;-72
2023/07/26 03:45:45;;;;;;;4.47;2.35;;;;;;;10.49;100.00;98043.09;4171042;28;20072;-71
2023/07/26 03:47:46;;;;;;;8.93;2.50;;;;;;;10.47;100.00;98046.25;4168520;28;20040;-71
2023/07/26 03:49:46;;;;;;;5.20;2.00;;;;;;;10.39;100.00;98048.19;4171868;28;20033;-71
2023/07/26 03:51:46;;;;;;;7.47;2.00;;;;;;;10.33;100.00;98048.94;4170785;28;20756;-71
2023/07/26 03:53:47;;;;;;;10.48;2.22;;;;;;;10.29;100.00;98048.94;4170108;28;20482;-71
2023/07/26 03:55:47;;;;;;;5.97;2.53;;;;;;;10.24;100.00;98060.34;4171347;28;20059;-71
2023/07/26 03:57:47;;;;;;;5.93;2.28;;;;;;;10.23;100.00;98046.91;4173048;28;20125;-71
2023/07/26 03:59:48;;;;;;;4.80;2.05;;;;;;;10.26;100.00;98062.72;4174742;28;20052;-71
2023/07/26 04:01:48;;;;;;;5.32;2.15;;;;;;;10.24;100.00;98060.34;4174531;28;20521;-71
2023/07/26 04:03:48;;;;;;;5.30;2.35;;;;;;;10.22;100.00;98061.91;4173859;28;20122;-71
2023/07/26 04:05:49;;;;;;;6.15;3.00;;;;;;;10.17;100.00;98065.00;4174711;28;20309;-71
2023/07/26 04:07:49;;;;;;;7.70;2.20;;;;;;;10.18;100.00;98063.81;4175427;28;20810;-71
2023/07/26 04:09:49;;;;;;;4.70;2.22;;;;;;;10.21;100.00;98065.84;4175282;28;20052;-71
2023/07/26 04:11:55;;;;;;;4.72;2.10;;;;;;;10.20;100.00;98072.56;4175693;28;20095;-71
2023/07/26 04:13:55;;;;;;;8.30;3.22;;;;;;;10.21;100.00;98072.16;4174092;28;20417;-71
2023/07/26 04:15:55;;;;;;;4.85;2.22;;;;;;;10.17;100.00;98067.78;4175664;28;20045;-71
2023/07/26 04:17:56;;;;;;;6.63;2.20;;;;;;;10.16;100.00;98066.97;4175032;28;20044;-71
2023/07/26 04:19:56;;;;;;;4.05;2.00;;;;;;;10.13;100.00;98068.56;4175390;28;20477;-71
2023/07/26 04:21:57;;;;;;;4.57;2.58;;;;;;;10.10;100.00;98069.34;4175225;28;20055;-71
2023/07/26 04:23:57;;;;;;;3.58;2.20;;;;;;;10.11;100.00;98073.69;4174638;28;20045;-71
2023/07/26 04:25:58;;;;;;;4.05;2.13;;;;;;;10.17;100.00;98074.09;4175317;28;20048;-71
2023/07/26 04:27:58;;;;;;;5.28;2.40;;;;;;;10.21;100.00;98079.66;4174839;28;20619;-71
2023/07/26 04:29:58;;;;;;;8.27;2.50;;;;;;;10.20;100.00;98078.88;4175785;28;20729;-71
2023/07/26 04:31:58;;;;;;;6.57;2.13;;;;;;;10.18;100.00;98072.94;4175174;28;20385;-71
2023/07/26 04:33:59;;;;;;;7.32;2.22;;;;;;;10.18;100.00;98078.47;4174331;28;20037;-71
2023/07/26 04:35:59;;;;;;;7.70;2.50;;;;;;;10.18;100.00;98084.00;4175273;28;20041;-71
2023/07/26 04:38:00;;;;;;;3.63;2.10;;;;;;;10.21;100.00;98085.97;4174723;28;20084;-71
2023/07/26 04:40:00;;;;;;;5.32;1.98;;;;;;;10.17;100.00;98082.38;4175096;28;20033;-71
2023/07/26 04:42:00;;;;;;;5.32;2.10;;;;;;;10.16;100.00;98093.84;4175333;28;20373;-71
2023/07/26 04:44:01;;;;;;;6.60;2.28;;;;;;;10.11;100.00;98093.03;4173403;28;20504;-71
2023/07/26 04:46:01;;;;;;;8.43;2.53;;;;;;;10.09;100.00;98084.34;4174354;28;20036;-71
2023/07/26 04:48:02;;;;;;;5.05;2.20;;;;;;;10.08;100.00;98081.94;4173567;28;20071;-71
2023/07/26 04:50:02;;;;;;;3.67;2.30;;;;;;;10.12;100.00;98080.00;4175255;28;20037;-71
2023/07/26 04:52:03;;;;;;;7.35;2.28;;;;;;;10.17;100.00;98087.91;4174714;28;20025;-71
2023/07/26 04:54:05;;;;;;;3.65;1.80;;;;;;;10.17;100.00;98095.41;4174013;28;20037;-71
2023/07/26 04:56:05;;;;;;;3.17;2.17;;;;;;;10.16;100.00;98085.53;4118909;28;20049;-71
2023/07/26 04:58:06;;;;;;;5.75;2.20;;;;;;;10.21;100.00;98090.72;4176544;28;20033;-71
2023/07/26 05:00:07;;;;;;;6.30;2.05;;;;;;;10.21;100.00;98091.50;4174635;28;20333;-71
2023/07/26 05:02:07;;;;;;;4.80;2.10;;;;;;;10.28;100.00;98096.34;4175023;28;20453;-71
2023/07/26 05:04:09;;;;;;;3.95;2.03;;;;;;;10.31;100.00;98103.84;4174490;28;20056;-71
2023/07/26 05:06:12;;;;;;;2.20;1.87;;;;;;;10.35;100.00;98093.63;4173749;28;20041;-71
2023/07/26 05:08:12;;;;;;;3.35;2.35;;;;;;;10.39;100.00;98097.19;4174115;28;20067;-71
2023/07/26 05:10:13;;;;;;;5.75;2.10;;;;;;;10.43;100.00;98098.00;4174145;28;20017;-71
2023/07/26 05:12:13;;;;;;;5.10;2.30;;;;;;;10.51;100.00;98101.59;4174950;28;20110;-71
2023/07/26 05:14:13;;;;;;;5.25;2.53;;;;;;;10.53;100.00;98096.47;4174426;28;20528;-71
2023/07/26 05:16:14;;;;;;;2.55;1.95;;;;;;;10.61;100.00;98101.66;4174470;28;20067;-71
2023/07/26 05:18:14;;;;;;;9.93;3.40;;;;;;;10.71;100.00;98102.91;4174699;28;20033;-71
2023/07/26 05:20:14;;;;;;;6.22;2.95;;;;;;;10.77;100.00;98103.31;4174126;28;20525;-71
2023/07/26 05:22:15;;;;;;;4.57;2.20;;;;;;;10.84;100.00;98097.78;4174145;28;20350;-71
2023/07/26 05:24:15;;;;;;;4.03;2.20;;;;;;;10.92;100.00;98100.25;4173509;28;20039;-71
2023/07/26 05:26:15;;;;;;;3.83;2.65;;;;;;;11.00;100.00;98103.00;4174137;28;20075;-71
2023/07/26 05:28:16;;;;;;;3.35;2.28;;;;;;;11.14;100.00;98103.84;4174396;28;20441;-71
2023/07/26 05:30:19;;;;;;;4.25;2.42;;;;;;;11.27;100.00;98106.28;4174113;28;20072;-71
2023/07/26 05:32:20;;;;;;;7.22;2.35;;;;;;;11.36;100.00;98106.69;4174318;28;20493;-71
2023/07/26 05:34:20;;;;;;;2.65;2.17;;;;;;;11.43;100.00;98101.97;4172825;28;20040;-71
2023/07/26 05:36:21;;;;;;;8.05;2.30;;;;;;;11.52;100.00;98101.59;4173551;28;20290;-71
2023/07/26 05:38:21;;;;;;;6.38;2.35;;;;;;;11.69;100.00;98095.28;4174520;28;20063;-71
2023/07/26 05:40:21;;;;;;;2.63;2.00;;;;;;;11.87;100.00;98100.84;4174188;28;20037;-71
2023/07/26 05:42:22;;;;;;;4.90;2.42;;;;;;;11.92;100.00;98096.91;4173670;28;20080;-71
2023/07/26 05:44:22;;;;;;;5.35;2.40;;;;;;;12.04;100.00;98097.28;4173098;28;20442;-71
2023/07/26 05:46:22;;;;;;;5.75;2.47;;;;;;;12.12;100.00;98100.06;4174667;28;20120;-71
2023/07/26 05:48:23;;;;;;;3.72;2.03;;;;;;;12.17;100.00;98094.13;4172646;28;20461;-71
2023/07/26 05:50:23;;;;;;;4.80;2.40;;;;;;;12.03;100.00;98101.25;4173801;28;20413;-71
2023/07/26 05:52:23;;;;;;;5.85;2.05;;;;;;;11.97;100.00;98100.06;4173047;28;20128;-71
2023/07/26 05:54:23;;;;;;;6.07;2.53;;;;;;;11.88;100.00;98099.66;4172611;28;20049;-71
2023/07/26 05:56:24;;;;;;;4.72;2.47;;;;;;;11.89;100.00;98098.47;4173713;28;20382;-70
2023/07/26 05:58:24;;;;;;;4.25;2.42;;;;;;;11.90;100.00;98100.03;4173577;28;20102;-71
2023/07/26 06:00:25;;;;;;;5.05;2.10;;;;;;;11.92;100.00;98094.13;4173611;28;20265;-71
2023/07/26 06:02:25;;;;;;;9.68;2.90;;;;;;;11.94;100.00;98095.31;4173630;28;20489;-71
2023/07/26 06:04:25;;;;;;;5.93;2.50;;;;;;;12.01;100.00;98109.19;4173360;28;20490;-71
2023/07/26 06:06:26;;;;;;;6.13;2.80;;;;;;;12.00;100.00;98104.03;4172914;28;20121;-71
2023/07/26 06:08:26;;;;;;;4.80;2.47;;;;;;;12.04;100.00;98105.59;4173550;28;20110;-71
2023/07/26 06:10:26;;;;;;;5.40;2.53;;;;;;;12.08;100.00;98102.81;4173574;28;20037;-71
2023/07/26 06:12:27;;;;;;;4.10;2.40;;;;;;;12.15;100.00;98113.91;4173666;28;20332;-71
2023/07/26 06:14:28;;;;;;;5.60;2.33;;;;;;;12.21;100.00;98109.56;4172804;28;20052;-71
2023/07/26 06:16:29;;;;;;;2.67;2.10;;;;;;;12.29;100.00;98108.34;4172448;28;20040;-72
2023/07/26 06:18:29;;;;;;;4.72;2.55;;;;;;;12.35;100.00;98101.22;4173225;28;20290;-71
2023/07/26 06:20:30;;;;;;;4.00;2.03;;;;;;;12.43;100.00;98118.66;4173006;28;20495;-71
2023/07/26 06:22:30;;;;;;;2.38;1.77;;;;;;;12.53;100.00;98115.06;4172930;28;20071;-71
2023/07/26 06:24:30;;;;;;;5.38;2.53;;;;;;;12.61;100.00;98116.63;4173154;28;20076;-71
2023/07/26 06:26:30;;;;;;;4.10;1.67;;;;;;;12.69;100.00;98114.63;4173422;28;20064;-71
2023/07/26 06:28:31;;;;;;;4.40;2.10;;;;;;;12.72;100.00;98113.81;4173176;28;20555;-71
2023/07/26 06:30:31;;;;;;;4.50;1.90;;;;;;;12.79;100.00;98118.56;4173179;28;20037;-71
2023/07/26 06:32:32;;;;;;;4.13;1.92;;;;;;;12.88;100.00;98124.47;4172993;28;20089;-71
2023/07/26 06:34:32;;;;;;;5.38;2.15;;;;;;;12.94;100.00;98122.88;4172422;28;20051;-71
2023/07/26 06:36:32;;;;;;;3.17;1.90;;;;;;;13.03;100.00;98117.66;4172636;28;20041;-71
2023/07/26 06:38:33;;;;;;;5.80;1.90;;;;;;;13.09;100.00;98120.84;4173152;28;20272;-71
2023/07/26 06:40:33;;;;;;;3.15;2.22;;;;;;;13.17;100.00;98122.38;4172368;28;20088;-71
2023/07/26 06:42:33;;;;;;;4.25;2.47;;;;;;;13.27;100.00;98131.88;4172532;28;20436;-70
2023/07/26 06:44:34;;;;;;;5.63;2.10;;;;;;;13.36;100.00;98129.47;4172912;28;20132;-71
2023/07/26 06:46:34;;;;;;;7.38;2.25;;;;;;;13.43;100.00;98130.22;4172248;28;20043;-71
2023/07/26 06:48:34;;;;;;;9.27;2.25;;;;;;;13.55;100.00;98136.50;4172513;28;20064;-71
2023/07/26 06:50:38;;;;;;;4.63;2.40;;;;;;;13.66;100.00;98135.25;4172488;28;20695;-71
2023/07/26 06:52:39;;;;;;;2.85;2.10;;;;;;;13.80;100.00;98130.78;4172854;28;20537;-71
2023/07/26 06:54:39;;;;;;;4.97;2.05;;;;;;;13.85;100.00;98128.38;4172873;28;20075;-71
2023/07/26 06:56:40;;;;;;;6.28;2.15;;;;;;;13.91;100.00;98145.41;4172891;28;20127;-70
2023/07/26 06:58:40;;;;;;;3.13;1.70;;;;;;;13.91;100.00;98137.06;4173624;28;20462;-71
2023/07/26 07:00:40;;;;;;;2.47;2.00;;;;;;;13.91;100.00;98139.84;4171771;28;20037;-71
2023/07/26 07:02:41;;;;;;;5.40;1.67;;;;;;;13.89;100.00;98145.78;4171872;28;20136;-71
2023/07/26 07:04:41;;;;;;;2.33;1.80;;;;;;;13.79;100.00;98135.53;4173142;28;20071;-71
2023/07/26 07:06:43;;;;;;;4.20;2.00;;;;;;;13.75;100.00;98141.16;4172809;28;20095;-71
2023/07/26 07:08:43;;;;;;;4.68;1.98;;;;;;;13.68;100.00;98140.41;4173026;28;20071;-71
2023/07/26 07:10:44;;;;;;;4.32;2.05;;;;;;;13.65;100.00;98143.97;4172572;28;20233;-71
2023/07/26 07:12:44;;;;;;;3.45;1.60;;;;;;;13.71;100.00;98147.91;4172694;28;20115;-71
2023/07/26 07:14:45;;;;;;;5.40;1.83;;;;;;;13.63;100.00;98141.59;4171693;28;20183;-71
2023/07/26 07:16:45;;;;;;;3.60;1.63;;;;;;;13.68;100.00;98143.97;4172963;28;20037;-71
2023/07/26 07:18:45;;;;;;;2.90;1.92;;;;;;;13.73;100.00;98139.94;4173400;28;20045;-71
2023/07/26 07:20:45;;;;;;;2.95;1.60;;;;;;;13.75;100.00;98141.16;4172602;28;20048;-71
2023/07/26 07:22:46;;;;;;;2.60;1.60;;;;;;;13.75;100.00;98145.91;4172469;28;20715;-71
2023/07/26 07:24:47;;;;;;;3.38;1.92;;;;;;;13.75;100.00;98140.34;4172135;28;20069;-70
2023/07/26 07:26:47;;;;;;;2.47;1.77;;;;;;;13.83;100.00;98155.00;4169357;28;20041;-71
2023/07/26 07:28:47;;;;;;;3.80;1.98;;;;;;;13.85;100.00;98158.16;4172099;28;20623;-71
2023/07/26 07:30:48;;;;;;;7.20;2.30;;;;;;;13.86;100.00;98149.41;4172284;28;20077;-71
2023/07/26 07:32:49;;;;;;;7.50;2.08;;;;;;;13.87;100.00;98145.41;4174020;28;20556;-71
2023/07/26 07:34:49;;;;;;;3.47;2.10;;;;;;;13.96;100.00;98148.53;4174952;28;20049;-71
2023/07/26 07:36:50;;;;;;;3.08;1.90;;;;;;;13.99;100.00;98139.38;4175178;28;20378;-71
2023/07/26 07:38:51;;;;;;;4.43;2.13;;;;;;;14.05;100.00;98148.06;4176082;28;20076;-71
2023/07/26 07:40:51;;;;;;;2.63;2.00;;;;;;;14.14;100.00;98147.59;4176234;28;20077;-71
2023/07/26 07:42:51;;;;;;;3.78;2.13;;;;;;;14.21;100.00;98150.31;4174753;28;20063;-71
2023/07/26 07:44:52;;;;;;;5.05;1.83;;;;;;;14.26;100.00;98147.13;4175513;28;20319;-71
2023/07/26 07:46:52;;;;;;;4.13;1.90;;;;;;;14.25;100.00;98156.66;4175993;28;20105;-71
2023/07/26 07:48:52;;;;;;;2.90;2.00;;;;;;;14.28;100.00;98151.06;4175814;28;20048;-71
2023/07/26 07:50:57;;;;;;;5.45;1.92;;;;;;;14.31;100.00;98161.38;4175701;28;20051;-71
2023/07/26 07:52:57;;;;;;;4.55;2.13;;;;;;;14.34;100.00;98159.78;4174817;28;20378;-71
2023/07/26 07:54:57;;;;;;;3.78;1.95;;;;;;;14.31;100.00;98161.38;4176112;28;20056;-71
2023/07/26 07:56:58;;;;;;;5.65;2.35;;;;;;;14.25;100.00;98160.25;4175666;28;20508;-71
2023/07/26 07:58:58;;;;;;;3.13;1.77;;;;;;;14.25;100.00;98157.47;4175544;28;20088;-71
2023/07/26 08:00:59;;;;;;;2.72;1.73;;;;;;;14.28;100.00;98170.53;4175510;28;20268;-71
2023/07/26 08:02:59;;;;;;;3.22;1.58;;;;;;;14.25;100.00;98156.66;4175007;28;20074;-71
2023/07/26 08:04:59;;;;;;;3.63;1.67;;;;;;;14.27;100.00;98166.19;4175701;28;20524;-71
2023/07/26 08:07:00;;;;;;;5.05;1.73;;;;;;;14.17;100.00;98161.50;4175830;28;20136;-71
2023/07/26 08:09:00;;;;;;;2.03;1.52;;;;;;;14.10;100.00;98157.97;4175362;28;20089;-71
2023/07/26 08:11:02;;;;;;;4.45;1.70;;;;;;;14.03;100.00;98172.72;4175763;28;20029;-71
2023/07/26 08:13:02;;;;;;;2.78;1.42;;;;;;;14.04;100.00;98172.31;4174879;28;20401;-71
2023/07/26 08:15:03;;;;;;;3.42;1.33;;;;;;;14.02;100.00;98177.50;4175244;28;20049;-71
2023/07/26 08:17:04;;;;;;;5.60;1.98;;;;;;;13.99;100.00;98169.19;4175638;28;20041;-71
2023/07/26 08:19:04;;;;;;;2.85;1.70;;;;;;;13.99;100.00;98172.75;4175525;28;20068;-71
2023/07/26 08:21:05;;;;;;;1.48;1.30;;;;;;;14.00;100.00;98182.69;4175548;28;20135;-71
2023/07/26 08:23:06;;;;;;;2.22;1.48;;;;;;;13.99;100.00;98174.75;4174118;28;20048;-71
2023/07/26 08:25:07;;;;;;;2.65;2.00;;;;;;;14.08;100.00;98179.84;4175238;28;20056;-71
2023/07/26 08:27:07;;;;;;;3.15;1.70;;;;;;;13.99;100.00;98175.53;4175432;28;20095;-71
2023/07/26 08:29:10;;;;;;;2.70;1.50;;;;;;;14.02;100.00;98174.72;4175485;28;20041;-71
2023/07/26 08:31:11;;;;;;;2.00;1.50;;;;;;;14.04;100.00;98168.75;4174491;28;20489;-71
2023/07/26 08:33:11;;;;;;;3.47;1.80;;;;;;;14.18;100.00;98184.53;4174512;28;20094;-71
2023/07/26 08:35:12;;;;;;;2.10;1.70;;;;;;;14.28;100.00;98175.31;4175441;28;20144;-71
2023/07/26 08:37:12;;;;;;;2.65;1.88;;;;;;;14.33;100.00;98183.25;4175392;28;20052;-71
2023/07/26 08:39:12;;;;;;;2.92;1.52;;;;;;;14.35;100.00;98172.47;4175089;28;20048;-71
2023/07/26 08:41:13;;;;;;;2.47;1.50;;;;;;;14.47;100.00;98177.56;4174681;28;20056;-71
2023/07/26 08:43:14;;;;;;;3.45;1.65;;;;;;;14.52;100.00;98179.91;4174726;28;20037;-71
2023/07/26 08:45:16;;;;;;;2.45;1.63;;;;;;;14.52;100.00;98179.91;4175067;28;20072;-71
2023/07/26 08:47:17;;;;;;;4.03;2.15;;;;;;;14.60;100.00;98177.84;4175075;28;20045;-71
2023/07/26 08:49:18;;;;;;;3.40;1.87;;;;;;;14.67;100.00;98177.00;4175358;28;20545;-71
2023/07/26 08:51:20;;;;;;;4.05;1.65;;;;;;;14.63;100.00;98176.22;4174897;28;20041;-71
2023/07/26 08:53:23;;;;;;;3.92;1.60;;;;;;;14.67;100.00;98183.34;4174524;28;20053;-71
2023/07/26 08:55:23;;;;;;;1.92;1.67;;;;;;;14.73;100.00;98180.91;4174878;28;20065;-71
2023/07/26 08:57:24;;;;;;;3.28;1.80;;;;;;;14.77;100.00;98178.88;4175387;28;20057;-71
2023/07/26 08:59:25;;;;;;;2.38;1.70;;;;;;;14.76;100.00;98177.31;4174520;28;20048;-71
2023/07/26 09:01:26;;;;;;;2.55;1.98;;;;;;;14.83;100.00;98175.25;4174712;28;20057;-71
2023/07/26 09:03:27;;;;;;;2.80;2.10;;;;;;;14.86;100.00;98177.19;4174270;28;20087;-71
2023/07/26 09:05:27;;;;;;;3.05;2.15;;;;;;;14.88;100.00;98174.78;4175089;28;20041;-71
2023/07/26 09:07:28;;;;;;;3.55;2.30;;;;;;;14.92;100.00;98173.97;4174725;28;20505;-71
2023/07/26 09:09:29;;;;;;;3.95;2.30;;;;;;;14.96;100.00;98164.34;4174540;28;20041;-71
2023/07/26 09:11:31;;;;;;;3.77;2.57;;;;;;;14.98;100.00;98156.38;4174945;28;20366;-71
2023/07/26 09:13:32;;;;;;;3.67;2.30;;;;;;;14.96;100.00;98155.19;4174063;28;20268;-71
2023/07/26 09:15:40;;;;;;;3.00;2.10;;;;;;;14.95;100.00;98159.19;4174732;28;20055;-71
2023/07/26 09:17:43;;;;;;;3.30;2.25;;;;;;;15.11;100.00;98143.47;4174330;28;20402;-71
2023/07/26 09:19:43;;;;;;;4.53;2.60;;;;;;;15.32;100.00;98150.00;4174184;28;20037;-71
2023/07/26 09:21:44;;;;;;;3.88;2.75;;;;;;;15.46;100.00;98142.22;4174608;28;20040;-71